sensor_id;sensor_type;location;lat;lon;timestamp;temperature;humidity
1988;DHT22;12775;46.994;15.498;2023-11-19T00:00:40;6.60;90.80
1988;DHT22;12775;46.994;15.498;2023-11-19T00:03:07;6.70;90.00
1988;DHT22;12775;46.994;15.498;2023-11-19T00:05:34;6.50;89.90
1988;DHT22;12775;46.994;15.498;2023-11-19T00:08:01;6.40;90.30
1988;DHT22;12775;46.994;15.498;2023-11-19T00:10:29;6.40;90.30
1988;DHT22;12775;46.994;15.498;2023-11-19T00:12:56;6.40;90.90
1988;DHT22;12775;46.994;15.498;2023-11-19T00:15:24;6.40;91.00
1988;DHT22;12775;46.994;15.498;2023-11-19T00:17:51;6.50;91.10
1988;DHT22;12775;46.994;15.498;2023-11-19T00:20:19;6.50;91.00
1988;DHT22;12775;46.994;15.498;2023-11-19T00:22:45;6.40;91.00
1988;DHT22;12775;46.994;15.498;2023-11-19T00:25:13;6.50;90.90
1988;DHT22;12775;46.994;15.498;2023-11-19T00:27:39;6.60;90.60
1988;DHT22;12775;46.994;15.498;2023-11-19T00:30:06;6.60;90.60
1988;DHT22;12775;46.994;15.498;2023-11-19T00:32:34;6.60;90.90
1988;DHT22;12775;46.994;15.498;2023-11-19T00:35:02;6.40;90.10
1988;DHT22;12775;46.994;15.498;2023-11-19T00:37:29;6.10;88.00
1988;DHT22;12775;46.994;15.498;2023-11-19T00:39:56;6.00;88.40
1988;DHT22;12775;46.994;15.498;2023-11-19T00:42:24;5.70;88.70
1988;DHT22;12775;46.994;15.498;2023-11-19T00:44:51;5.70;88.70
1988;DHT22;12775;46.994;15.498;2023-11-19T00:47:17;5.80;90.40
1988;DHT22;12775;46.994;15.498;2023-11-19T00:49:44;5.80;90.90
1988;DHT22;12775;46.994;15.498;2023-11-19T00:52:12;5.70;89.60
1988;DHT22;12775;46.994;15.498;2023-11-19T00:54:39;5.70;89.60
1988;DHT22;12775;46.994;15.498;2023-11-19T00:57:06;5.60;90.20
1988;DHT22;12775;46.994;15.498;2023-11-19T00:59:34;5.50;90.00
1988;DHT22;12775;46.994;15.498;2023-11-19T01:02:01;5.40;90.30
1988;DHT22;12775;46.994;15.498;2023-11-19T01:04:33;5.50;90.20
1988;DHT22;12775;46.994;15.498;2023-11-19T01:06:57;5.50;90.20
1988;DHT22;12775;46.994;15.498;2023-11-19T01:09:24;5.50;89.90
1988;DHT22;12775;46.994;15.498;2023-11-19T01:11:51;5.40;89.80
1988;DHT22;12775;46.994;15.498;2023-11-19T01:14:19;5.50;90.20
1988;DHT22;12775;46.994;15.498;2023-11-19T01:16:46;5.50;90.30
1988;DHT22;12775;46.994;15.498;2023-11-19T01:19:13;5.50;90.30
1988;DHT22;12775;46.994;15.498;2023-11-19T01:21:40;5.70;90.40
1988;DHT22;12775;46.994;15.498;2023-11-19T01:24:08;5.80;91.00
1988;DHT22;12775;46.994;15.498;2023-11-19T01:26:34;5.80;91.30
1988;DHT22;12775;46.994;15.498;2023-11-19T01:29:01;5.90;89.50
1988;DHT22;12775;46.994;15.498;2023-11-19T01:31:29;6.00;89.00
1988;DHT22;12775;46.994;15.498;2023-11-19T01:33:56;6.00;89.00
1988;DHT22;12775;46.994;15.498;2023-11-19T01:36:24;6.00;88.90
1988;DHT22;12775;46.994;15.498;2023-11-19T01:38:51;6.10;89.00
1988;DHT22;12775;46.994;15.498;2023-11-19T01:41:18;6.00;88.20
1988;DHT22;12775;46.994;15.498;2023-11-19T01:43:45;6.00;88.20
1988;DHT22;12775;46.994;15.498;2023-11-19T01:46:12;6.00;87.80
1988;DHT22;12775;46.994;15.498;2023-11-19T01:48:40;6.00;88.00
1988;DHT22;12775;46.994;15.498;2023-11-19T01:51:06;6.00;86.20
1988;DHT22;12775;46.994;15.498;2023-11-19T01:53:32;5.90;86.90
1988;DHT22;12775;46.994;15.498;2023-11-19T01:55:59;5.80;87.00
1988;DHT22;12775;46.994;15.498;2023-11-19T01:58:25;5.70;88.10
1988;DHT22;12775;46.994;15.498;2023-11-19T02:00:52;5.70;88.60
1988;DHT22;12775;46.994;15.498;2023-11-19T02:03:19;5.70;89.10
1988;DHT22;12775;46.994;15.498;2023-11-19T02:05:47;5.70;88.20
1988;DHT22;12775;46.994;15.498;2023-11-19T02:08:13;5.70;89.00
1988;DHT22;12775;46.994;15.498;2023-11-19T02:10:41;5.70;89.20
1988;DHT22;12775;46.994;15.498;2023-11-19T02:13:08;5.70;89.00
1988;DHT22;12775;46.994;15.498;2023-11-19T02:15:35;5.80;89.00
1988;DHT22;12775;46.994;15.498;2023-11-19T02:20:42;5.70;88.30
1988;DHT22;12775;46.994;15.498;2023-11-19T02:23:09;5.70;88.60
1988;DHT22;12775;46.994;15.498;2023-11-19T02:25:37;5.70;89.40
1988;DHT22;12775;46.994;15.498;2023-11-19T02:28:04;5.70;89.60
1988;DHT22;12775;46.994;15.498;2023-11-19T02:30:31;5.70;89.20
1988;DHT22;12775;46.994;15.498;2023-11-19T02:32:59;5.70;89.40
1988;DHT22;12775;46.994;15.498;2023-11-19T02:35:26;5.70;89.40
1988;DHT22;12775;46.994;15.498;2023-11-19T02:37:54;5.70;90.10
1988;DHT22;12775;46.994;15.498;2023-11-19T02:40:21;5.70;90.10
1988;DHT22;12775;46.994;15.498;2023-11-19T02:42:48;5.70;90.10
1988;DHT22;12775;46.994;15.498;2023-11-19T02:45:14;5.60;90.30
1988;DHT22;12775;46.994;15.498;2023-11-19T02:47:41;5.60;90.70
1988;DHT22;12775;46.994;15.498;2023-11-19T02:50:09;5.70;90.60
1988;DHT22;12775;46.994;15.498;2023-11-19T02:52:36;5.60;90.90
1988;DHT22;12775;46.994;15.498;2023-11-19T02:55:03;5.50;90.90
1988;DHT22;12775;46.994;15.498;2023-11-19T02:57:31;5.40;91.40
1988;DHT22;12775;46.994;15.498;2023-11-19T02:59:57;5.50;91.60
1988;DHT22;12775;46.994;15.498;2023-11-19T03:02:24;5.30;91.80
1988;DHT22;12775;46.994;15.498;2023-11-19T03:04:50;5.20;92.20
1988;DHT22;12775;46.994;15.498;2023-11-19T03:07:17;5.30;92.40
1988;DHT22;12775;46.994;15.498;2023-11-19T03:09:44;5.20;92.40
1988;DHT22;12775;46.994;15.498;2023-11-19T03:12:12;5.30;92.60
1988;DHT22;12775;46.994;15.498;2023-11-19T03:14:39;5.20;92.70
1988;DHT22;12775;46.994;15.498;2023-11-19T03:17:06;5.20;92.60
1988;DHT22;12775;46.994;15.498;2023-11-19T03:19:34;5.30;92.50
1988;DHT22;12775;46.994;15.498;2023-11-19T03:22:01;5.40;92.80
1988;DHT22;12775;46.994;15.498;2023-11-19T03:24:29;5.40;93.20
1988;DHT22;12775;46.994;15.498;2023-11-19T03:26:56;5.50;93.20
1988;DHT22;12775;46.994;15.498;2023-11-19T03:29:23;5.60;93.60
1988;DHT22;12775;46.994;15.498;2023-11-19T03:31:51;5.70;94.10
1988;DHT22;12775;46.994;15.498;2023-11-19T03:34:18;5.80;93.40
1988;DHT22;12775;46.994;15.498;2023-11-19T03:36:44;5.80;93.40
1988;DHT22;12775;46.994;15.498;2023-11-19T03:39:11;5.90;93.70
1988;DHT22;12775;46.994;15.498;2023-11-19T03:41:38;6.10;92.80
1988;DHT22;12775;46.994;15.498;2023-11-19T03:44:06;6.10;92.30
1988;DHT22;12775;46.994;15.498;2023-11-19T03:46:33;6.20;92.20
1988;DHT22;12775;46.994;15.498;2023-11-19T03:49:00;6.20;92.20
1988;DHT22;12775;46.994;15.498;2023-11-19T03:51:27;6.40;91.10
1988;DHT22;12775;46.994;15.498;2023-11-19T03:53:55;6.40;91.10
1988;DHT22;12775;46.994;15.498;2023-11-19T03:56:23;6.50;90.90
1988;DHT22;12775;46.994;15.498;2023-11-19T03:58:50;6.50;90.90
1988;DHT22;12775;46.994;15.498;2023-11-19T04:01:17;6.50;90.90
1988;DHT22;12775;46.994;15.498;2023-11-19T04:03:43;6.60;90.80
1988;DHT22;12775;46.994;15.498;2023-11-19T04:06:10;6.60;90.90
1988;DHT22;12775;46.994;15.498;2023-11-19T04:08:37;6.70;91.30
1988;DHT22;12775;46.994;15.498;2023-11-19T04:11:05;6.70;91.00
1988;DHT22;12775;46.994;15.498;2023-11-19T04:13:32;6.70;90.60
1988;DHT22;12775;46.994;15.498;2023-11-19T04:15:59;6.70;90.60
1988;DHT22;12775;46.994;15.498;2023-11-19T04:18:26;6.80;90.00
1988;DHT22;12775;46.994;15.498;2023-11-19T04:20:53;6.80;90.40
1988;DHT22;12775;46.994;15.498;2023-11-19T04:23:21;6.90;90.30
1988;DHT22;12775;46.994;15.498;2023-11-19T04:25:48;7.00;90.40
1988;DHT22;12775;46.994;15.498;2023-11-19T04:28:15;7.00;90.80
1988;DHT22;12775;46.994;15.498;2023-11-19T04:30:43;7.00;91.70
1988;DHT22;12775;46.994;15.498;2023-11-19T04:33:11;7.00;91.60
1988;DHT22;12775;46.994;15.498;2023-11-19T04:35:39;7.10;91.80
1988;DHT22;12775;46.994;15.498;2023-11-19T04:38:06;7.10;91.70
1988;DHT22;12775;46.994;15.498;2023-11-19T04:40:33;7.10;91.70
1988;DHT22;12775;46.994;15.498;2023-11-19T04:43:00;7.20;92.20
1988;DHT22;12775;46.994;15.498;2023-11-19T04:45:27;7.20;92.30
1988;DHT22;12775;46.994;15.498;2023-11-19T04:47:54;7.20;92.30
1988;DHT22;12775;46.994;15.498;2023-11-19T04:50:21;7.20;92.20
1988;DHT22;12775;46.994;15.498;2023-11-19T04:52:49;7.20;91.60
1988;DHT22;12775;46.994;15.498;2023-11-19T04:55:16;7.20;91.20
1988;DHT22;12775;46.994;15.498;2023-11-19T04:57:43;7.20;90.90
1988;DHT22;12775;46.994;15.498;2023-11-19T05:00:12;7.30;90.60
1988;DHT22;12775;46.994;15.498;2023-11-19T05:02:39;7.20;90.30
1988;DHT22;12775;46.994;15.498;2023-11-19T05:05:07;7.20;90.10
1988;DHT22;12775;46.994;15.498;2023-11-19T05:07:34;7.20;89.90
1988;DHT22;12775;46.994;15.498;2023-11-19T05:10:01;7.20;89.30
1988;DHT22;12775;46.994;15.498;2023-11-19T05:12:28;7.20;89.40
1988;DHT22;12775;46.994;15.498;2023-11-19T05:14:55;7.10;89.10
1988;DHT22;12775;46.994;15.498;2023-11-19T05:17:22;7.10;88.70
1988;DHT22;12775;46.994;15.498;2023-11-19T05:19:49;7.10;89.00
1988;DHT22;12775;46.994;15.498;2023-11-19T05:22:17;7.00;88.80
1988;DHT22;12775;46.994;15.498;2023-11-19T05:24:44;6.90;89.30
1988;DHT22;12775;46.994;15.498;2023-11-19T05:27:11;6.90;89.90
1988;DHT22;12775;46.994;15.498;2023-11-19T05:29:39;6.80;89.30
1988;DHT22;12775;46.994;15.498;2023-11-19T05:32:06;6.70;89.70
1988;DHT22;12775;46.994;15.498;2023-11-19T05:34:33;6.70;89.50
1988;DHT22;12775;46.994;15.498;2023-11-19T05:37:01;6.60;89.50
1988;DHT22;12775;46.994;15.498;2023-11-19T05:39:28;6.60;90.30
1988;DHT22;12775;46.994;15.498;2023-11-19T05:41:55;6.50;89.90
1988;DHT22;12775;46.994;15.498;2023-11-19T05:44:22;6.50;90.00
1988;DHT22;12775;46.994;15.498;2023-11-19T05:46:50;6.60;90.20
1988;DHT22;12775;46.994;15.498;2023-11-19T05:49:16;6.50;90.20
1988;DHT22;12775;46.994;15.498;2023-11-19T05:51:44;6.60;90.60
1988;DHT22;12775;46.994;15.498;2023-11-19T05:54:11;6.60;90.50
1988;DHT22;12775;46.994;15.498;2023-11-19T05:56:38;6.60;90.50
1988;DHT22;12775;46.994;15.498;2023-11-19T05:59:07;6.50;90.60
1988;DHT22;12775;46.994;15.498;2023-11-19T06:01:34;6.50;90.70
1988;DHT22;12775;46.994;15.498;2023-11-19T06:04:01;6.50;91.00
1988;DHT22;12775;46.994;15.498;2023-11-19T06:06:28;6.50;90.90
1988;DHT22;12775;46.994;15.498;2023-11-19T06:08:54;6.50;90.90
1988;DHT22;12775;46.994;15.498;2023-11-19T06:11:21;6.50;91.60
1988;DHT22;12775;46.994;15.498;2023-11-19T06:13:48;6.40;91.60
1988;DHT22;12775;46.994;15.498;2023-11-19T06:16:16;6.30;91.70
1988;DHT22;12775;46.994;15.498;2023-11-19T06:18:43;6.30;91.80
1988;DHT22;12775;46.994;15.498;2023-11-19T06:21:10;6.30;91.90
1988;DHT22;12775;46.994;15.498;2023-11-19T06:23:36;6.30;91.90
1988;DHT22;12775;46.994;15.498;2023-11-19T06:26:04;6.30;92.00
1988;DHT22;12775;46.994;15.498;2023-11-19T06:28:31;6.30;92.00
1988;DHT22;12775;46.994;15.498;2023-11-19T06:30:59;6.30;92.10
1988;DHT22;12775;46.994;15.498;2023-11-19T06:33:25;6.30;92.10
1988;DHT22;12775;46.994;15.498;2023-11-19T06:35:52;6.30;92.20
1988;DHT22;12775;46.994;15.498;2023-11-19T06:38:20;6.30;92.30
1988;DHT22;12775;46.994;15.498;2023-11-19T06:40:48;6.30;92.50
1988;DHT22;12775;46.994;15.498;2023-11-19T06:43:15;6.30;92.90
1988;DHT22;12775;46.994;15.498;2023-11-19T06:45:42;6.20;92.70
1988;DHT22;12775;46.994;15.498;2023-11-19T06:48:10;6.20;92.60
1988;DHT22;12775;46.994;15.498;2023-11-19T06:50:37;6.30;93.10
1988;DHT22;12775;46.994;15.498;2023-11-19T06:53:04;6.30;93.00
1988;DHT22;12775;46.994;15.498;2023-11-19T06:55:32;6.30;92.80
1988;DHT22;12775;46.994;15.498;2023-11-19T06:57:59;6.30;92.90
1988;DHT22;12775;46.994;15.498;2023-11-19T07:00:27;6.30;92.80
1988;DHT22;12775;46.994;15.498;2023-11-19T07:02:53;6.30;92.80
1988;DHT22;12775;46.994;15.498;2023-11-19T07:05:20;6.30;92.90
1988;DHT22;12775;46.994;15.498;2023-11-19T07:07:47;6.40;93.10
1988;DHT22;12775;46.994;15.498;2023-11-19T07:10:14;6.40;93.80
1988;DHT22;12775;46.994;15.498;2023-11-19T07:12:41;6.40;94.00
1988;DHT22;12775;46.994;15.498;2023-11-19T07:15:09;6.50;94.30
1988;DHT22;12775;46.994;15.498;2023-11-19T07:17:37;6.50;94.00
1988;DHT22;12775;46.994;15.498;2023-11-19T07:20:05;6.50;94.40
1988;DHT22;12775;46.994;15.498;2023-11-19T07:22:32;6.60;94.90
1988;DHT22;12775;46.994;15.498;2023-11-19T07:24:59;6.60;95.00
1988;DHT22;12775;46.994;15.498;2023-11-19T07:27:27;6.60;94.90
1988;DHT22;12775;46.994;15.498;2023-11-19T07:29:54;6.60;94.10
1988;DHT22;12775;46.994;15.498;2023-11-19T07:32:21;6.60;93.10
1988;DHT22;12775;46.994;15.498;2023-11-19T07:34:49;6.50;93.10
1988;DHT22;12775;46.994;15.498;2023-11-19T07:37:16;6.50;93.40
1988;DHT22;12775;46.994;15.498;2023-11-19T07:39:44;6.50;93.40
1988;DHT22;12775;46.994;15.498;2023-11-19T07:42:11;6.40;93.80
1988;DHT22;12775;46.994;15.498;2023-11-19T07:44:38;6.30;93.70
1988;DHT22;12775;46.994;15.498;2023-11-19T07:47:06;6.10;94.30
1988;DHT22;12775;46.994;15.498;2023-11-19T07:49:33;5.90;95.10
1988;DHT22;12775;46.994;15.498;2023-11-19T07:52:00;5.80;96.50
1988;DHT22;12775;46.994;15.498;2023-11-19T07:54:28;5.80;97.10
1988;DHT22;12775;46.994;15.498;2023-11-19T07:56:55;5.80;98.00
1988;DHT22;12775;46.994;15.498;2023-11-19T07:59:23;5.80;98.30
1988;DHT22;12775;46.994;15.498;2023-11-19T08:01:50;5.90;98.70
1988;DHT22;12775;46.994;15.498;2023-11-19T08:04:17;5.90;97.80
1988;DHT22;12775;46.994;15.498;2023-11-19T08:06:44;5.90;97.80
1988;DHT22;12775;46.994;15.498;2023-11-19T08:09:10;5.90;97.00
1988;DHT22;12775;46.994;15.498;2023-11-19T08:11:40;5.90;97.60
1988;DHT22;12775;46.994;15.498;2023-11-19T08:14:08;6.00;97.80
1988;DHT22;12775;46.994;15.498;2023-11-19T08:16:35;6.00;97.50
1988;DHT22;12775;46.994;15.498;2023-11-19T08:19:03;6.10;97.80
1988;DHT22;12775;46.994;15.498;2023-11-19T08:21:30;6.20;97.00
1988;DHT22;12775;46.994;15.498;2023-11-19T08:23:57;6.20;96.80
1988;DHT22;12775;46.994;15.498;2023-11-19T08:26:24;6.20;96.70
1988;DHT22;12775;46.994;15.498;2023-11-19T08:28:51;6.20;96.50
1988;DHT22;12775;46.994;15.498;2023-11-19T08:31:17;6.20;97.10
1988;DHT22;12775;46.994;15.498;2023-11-19T08:33:45;6.40;96.60
1988;DHT22;12775;46.994;15.498;2023-11-19T08:36:15;6.50;96.30
1988;DHT22;12775;46.994;15.498;2023-11-19T08:38:42;6.40;95.00
1988;DHT22;12775;46.994;15.498;2023-11-19T08:41:10;6.50;95.40
1988;DHT22;12775;46.994;15.498;2023-11-19T08:43:38;6.60;95.40
1988;DHT22;12775;46.994;15.498;2023-11-19T08:46:10;6.70;95.90
1988;DHT22;12775;46.994;15.498;2023-11-19T08:48:37;6.60;96.60
1988;DHT22;12775;46.994;15.498;2023-11-19T08:51:04;6.70;96.50
1988;DHT22;12775;46.994;15.498;2023-11-19T08:53:32;6.60;95.10
1988;DHT22;12775;46.994;15.498;2023-11-19T08:55:59;6.70;95.80
1988;DHT22;12775;46.994;15.498;2023-11-19T08:58:27;6.80;95.40
1988;DHT22;12775;46.994;15.498;2023-11-19T09:00:54;6.80;95.10
1988;DHT22;12775;46.994;15.498;2023-11-19T09:03:21;6.90;95.00
1988;DHT22;12775;46.994;15.498;2023-11-19T09:05:49;7.00;95.20
1988;DHT22;12775;46.994;15.498;2023-11-19T09:08:15;7.00;95.20
1988;DHT22;12775;46.994;15.498;2023-11-19T09:10:42;7.10;95.00
1988;DHT22;12775;46.994;15.498;2023-11-19T09:13:09;7.20;94.80
1988;DHT22;12775;46.994;15.498;2023-11-19T09:15:36;7.20;94.80
1988;DHT22;12775;46.994;15.498;2023-11-19T09:18:02;7.20;94.70
1988;DHT22;12775;46.994;15.498;2023-11-19T09:20:29;7.30;96.10
1988;DHT22;12775;46.994;15.498;2023-11-19T09:22:56;7.50;95.60
1988;DHT22;12775;46.994;15.498;2023-11-19T09:25:24;7.60;95.70
1988;DHT22;12775;46.994;15.498;2023-11-19T09:27:51;7.70;95.50
1988;DHT22;12775;46.994;15.498;2023-11-19T09:30:18;7.80;93.60
1988;DHT22;12775;46.994;15.498;2023-11-19T09:32:46;7.60;93.70
1988;DHT22;12775;46.994;15.498;2023-11-19T09:35:13;7.60;94.10
1988;DHT22;12775;46.994;15.498;2023-11-19T09:37:41;7.60;94.00
1988;DHT22;12775;46.994;15.498;2023-11-19T09:40:08;7.60;95.40
1988;DHT22;12775;46.994;15.498;2023-11-19T09:42:42;7.70;95.80
1988;DHT22;12775;46.994;15.498;2023-11-19T09:45:05;7.80;95.10
1988;DHT22;12775;46.994;15.498;2023-11-19T09:47:33;7.90;93.60
1988;DHT22;12775;46.994;15.498;2023-11-19T09:50:00;7.90;93.50
1988;DHT22;12775;46.994;15.498;2023-11-19T09:52:26;7.90;94.10
1988;DHT22;12775;46.994;15.498;2023-11-19T09:54:53;8.00;93.20
1988;DHT22;12775;46.994;15.498;2023-11-19T09:57:19;7.90;91.90
1988;DHT22;12775;46.994;15.498;2023-11-19T09:59:47;7.90;93.20
1988;DHT22;12775;46.994;15.498;2023-11-19T10:02:14;7.90;93.20
1988;DHT22;12775;46.994;15.498;2023-11-19T10:04:41;8.20;95.10
1988;DHT22;12775;46.994;15.498;2023-11-19T10:07:08;8.30;95.30
1988;DHT22;12775;46.994;15.498;2023-11-19T10:09:36;8.50;95.60
1988;DHT22;12775;46.994;15.498;2023-11-19T10:12:02;8.50;95.60
1988;DHT22;12775;46.994;15.498;2023-11-19T10:14:30;8.70;93.80
1988;DHT22;12775;46.994;15.498;2023-11-19T10:16:57;8.80;93.50
1988;DHT22;12775;46.994;15.498;2023-11-19T10:19:25;8.80;91.40
1988;DHT22;12775;46.994;15.498;2023-11-19T10:21:52;8.80;93.10
1988;DHT22;12775;46.994;15.498;2023-11-19T10:24:31;8.90;90.90
1988;DHT22;12775;46.994;15.498;2023-11-19T10:26:47;9.10;91.80
1988;DHT22;12775;46.994;15.498;2023-11-19T10:29:14;9.10;91.60
1988;DHT22;12775;46.994;15.498;2023-11-19T10:31:43;9.20;90.30
1988;DHT22;12775;46.994;15.498;2023-11-19T10:34:25;9.20;90.40
1988;DHT22;12775;46.994;15.498;2023-11-19T10:36:51;9.20;90.30
1988;DHT22;12775;46.994;15.498;2023-11-19T10:39:19;9.30;91.40
1988;DHT22;12775;46.994;15.498;2023-11-19T10:41:46;9.30;92.30
1988;DHT22;12775;46.994;15.498;2023-11-19T10:44:28;9.20;89.50
1988;DHT22;12775;46.994;15.498;2023-11-19T10:46:42;9.30;92.10
1988;DHT22;12775;46.994;15.498;2023-11-19T10:49:09;9.40;93.20
1988;DHT22;12775;46.994;15.498;2023-11-19T10:51:36;9.60;91.20
1988;DHT22;12775;46.994;15.498;2023-11-19T10:54:05;9.60;90.20
1988;DHT22;12775;46.994;15.498;2023-11-19T10:56:32;9.60;90.20
1988;DHT22;12775;46.994;15.498;2023-11-19T10:58:59;9.80;92.20
1988;DHT22;12775;46.994;15.498;2023-11-19T11:01:27;10.00;90.70
1988;DHT22;12775;46.994;15.498;2023-11-19T11:03:53;10.20;86.70
1988;DHT22;12775;46.994;15.498;2023-11-19T11:06:20;10.30;85.90
1988;DHT22;12775;46.994;15.498;2023-11-19T11:08:48;10.30;85.90
1988;DHT22;12775;46.994;15.498;2023-11-19T11:11:15;10.40;89.30
1988;DHT22;12775;46.994;15.498;2023-11-19T11:13:42;10.50;89.90
1988;DHT22;12775;46.994;15.498;2023-11-19T11:16:09;10.80;88.60
1988;DHT22;12775;46.994;15.498;2023-11-19T11:18:36;10.70;85.40
1988;DHT22;12775;46.994;15.498;2023-11-19T11:21:05;10.80;85.50
1988;DHT22;12775;46.994;15.498;2023-11-19T11:23:59;10.80;82.90
1988;DHT22;12775;46.994;15.498;2023-11-19T11:29:03;10.90;85.50
1988;DHT22;12775;46.994;15.498;2023-11-19T11:31:43;10.90;84.20
1988;DHT22;12775;46.994;15.498;2023-11-19T11:34:22;11.10;88.10
1988;DHT22;12775;46.994;15.498;2023-11-19T11:36:53;11.30;87.40
1988;DHT22;12775;46.994;15.498;2023-11-19T11:39:16;11.30;87.30
1988;DHT22;12775;46.994;15.498;2023-11-19T11:41:44;11.30;84.30
1988;DHT22;12775;46.994;15.498;2023-11-19T11:44:10;11.30;84.20
1988;DHT22;12775;46.994;15.498;2023-11-19T11:46:53;11.40;85.60
1988;DHT22;12775;46.994;15.498;2023-11-19T11:49:24;11.50;85.10
1988;DHT22;12775;46.994;15.498;2023-11-19T11:51:58;11.60;83.20
1988;DHT22;12775;46.994;15.498;2023-11-19T11:54:25;11.60;83.20
1988;DHT22;12775;46.994;15.498;2023-11-19T11:57:03;11.70;82.10
1988;DHT22;12775;46.994;15.498;2023-11-19T11:59:47;11.70;82.00
1988;DHT22;12775;46.994;15.498;2023-11-19T12:02:15;11.80;80.90
1988;DHT22;12775;46.994;15.498;2023-11-19T12:04:41;11.90;79.50
1988;DHT22;12775;46.994;15.498;2023-11-19T12:07:12;11.80;79.40
1988;DHT22;12775;46.994;15.498;2023-11-19T12:09:40;11.90;82.10
1988;DHT22;12775;46.994;15.498;2023-11-19T12:12:13;11.90;83.70
1988;DHT22;12775;46.994;15.498;2023-11-19T12:14:59;12.00;83.40
1988;DHT22;12775;46.994;15.498;2023-11-19T12:17:48;12.10;83.30
1988;DHT22;12775;46.994;15.498;2023-11-19T12:20:14;12.20;80.80
1988;DHT22;12775;46.994;15.498;2023-11-19T12:22:42;12.30;81.70
1988;DHT22;12775;46.994;15.498;2023-11-19T12:25:09;12.30;81.60
1988;DHT22;12775;46.994;15.498;2023-11-19T12:27:36;12.30;78.50
1988;DHT22;12775;46.994;15.498;2023-11-19T12:30:05;12.30;77.00
1988;DHT22;12775;46.994;15.498;2023-11-19T12:32:41;12.20;76.90
1988;DHT22;12775;46.994;15.498;2023-11-19T12:35:08;12.30;77.70
1988;DHT22;12775;46.994;15.498;2023-11-19T12:37:38;12.20;80.60
1988;DHT22;12775;46.994;15.498;2023-11-19T12:40:02;12.20;78.70
1988;DHT22;12775;46.994;15.498;2023-11-19T12:42:35;12.20;78.60
1988;DHT22;12775;46.994;15.498;2023-11-19T12:45:02;11.90;77.00
1988;DHT22;12775;46.994;15.498;2023-11-19T12:47:30;11.80;76.90
1988;DHT22;12775;46.994;15.498;2023-11-19T12:49:56;11.90;76.40
1988;DHT22;12775;46.994;15.498;2023-11-19T12:52:23;11.80;76.60
1988;DHT22;12775;46.994;15.498;2023-11-19T12:54:50;11.80;75.40
1988;DHT22;12775;46.994;15.498;2023-11-19T12:57:17;11.70;75.50
1988;DHT22;12775;46.994;15.498;2023-11-19T13:02:17;11.60;75.30
1988;DHT22;12775;46.994;15.498;2023-11-19T13:04:43;11.60;74.70
1988;DHT22;12775;46.994;15.498;2023-11-19T13:07:10;11.50;75.20
1988;DHT22;12775;46.994;15.498;2023-11-19T13:09:36;11.60;75.20
1988;DHT22;12775;46.994;15.498;2023-11-19T13:12:18;11.60;74.80
1988;DHT22;12775;46.994;15.498;2023-11-19T13:14:45;11.60;76.80
1988;DHT22;12775;46.994;15.498;2023-11-19T13:17:13;11.60;75.10
1988;DHT22;12775;46.994;15.498;2023-11-19T13:19:40;11.60;75.10
1988;DHT22;12775;46.994;15.498;2023-11-19T13:22:06;11.60;74.80
1988;DHT22;12775;46.994;15.498;2023-11-19T13:24:33;11.70;77.20
1988;DHT22;12775;46.994;15.498;2023-11-19T13:26:59;11.60;73.70
1988;DHT22;12775;46.994;15.498;2023-11-19T13:29:27;11.70;72.00
1988;DHT22;12775;46.994;15.498;2023-11-19T13:31:53;11.60;71.80
1988;DHT22;12775;46.994;15.498;2023-11-19T13:34:20;11.60;72.10
1988;DHT22;12775;46.994;15.498;2023-11-19T13:36:47;11.40;71.40
1988;DHT22;12775;46.994;15.498;2023-11-19T13:39:15;11.40;73.60
1988;DHT22;12775;46.994;15.498;2023-11-19T13:41:42;11.50;73.50
1988;DHT22;12775;46.994;15.498;2023-11-19T13:44:09;11.40;73.40
1988;DHT22;12775;46.994;15.498;2023-11-19T13:46:35;11.50;73.10
1988;DHT22;12775;46.994;15.498;2023-11-19T13:49:02;11.50;75.10
1988;DHT22;12775;46.994;15.498;2023-11-19T13:51:29;11.50;74.20
1988;DHT22;12775;46.994;15.498;2023-11-19T13:53:55;11.60;76.60
1988;DHT22;12775;46.994;15.498;2023-11-19T13:56:22;11.60;76.60
1988;DHT22;12775;46.994;15.498;2023-11-19T13:58:48;11.60;73.60
1988;DHT22;12775;46.994;15.498;2023-11-19T14:01:15;11.60;75.80
1988;DHT22;12775;46.994;15.498;2023-11-19T14:03:42;11.50;73.60
1988;DHT22;12775;46.994;15.498;2023-11-19T14:06:09;11.50;74.30
1988;DHT22;12775;46.994;15.498;2023-11-19T14:08:35;11.50;72.80
1988;DHT22;12775;46.994;15.498;2023-11-19T14:11:02;11.40;75.10
1988;DHT22;12775;46.994;15.498;2023-11-19T14:13:30;11.40;71.80
1988;DHT22;12775;46.994;15.498;2023-11-19T14:15:56;11.40;71.80
1988;DHT22;12775;46.994;15.498;2023-11-19T14:18:24;11.50;72.40
1988;DHT22;12775;46.994;15.498;2023-11-19T14:20:51;11.50;72.40
1988;DHT22;12775;46.994;15.498;2023-11-19T14:23:18;11.50;74.30
1988;DHT22;12775;46.994;15.498;2023-11-19T14:25:45;11.50;73.00
1988;DHT22;12775;46.994;15.498;2023-11-19T14:28:12;11.50;73.20
1988;DHT22;12775;46.994;15.498;2023-11-19T14:30:39;11.40;73.10
1988;DHT22;12775;46.994;15.498;2023-11-19T14:33:06;11.50;73.70
1988;DHT22;12775;46.994;15.498;2023-11-19T14:35:33;11.50;73.60
1988;DHT22;12775;46.994;15.498;2023-11-19T14:38:00;11.50;72.40
1988;DHT22;12775;46.994;15.498;2023-11-19T14:40:26;11.50;72.80
1988;DHT22;12775;46.994;15.498;2023-11-19T14:42:53;11.50;73.60
1988;DHT22;12775;46.994;15.498;2023-11-19T14:45:19;11.50;74.20
1988;DHT22;12775;46.994;15.498;2023-11-19T14:47:47;11.50;73.40
1988;DHT22;12775;46.994;15.498;2023-11-19T14:50:15;11.50;75.80
1988;DHT22;12775;46.994;15.498;2023-11-19T14:52:42;11.50;76.50
1988;DHT22;12775;46.994;15.498;2023-11-19T14:55:09;11.40;76.40
1988;DHT22;12775;46.994;15.498;2023-11-19T14:57:35;11.50;77.40
1988;DHT22;12775;46.994;15.498;2023-11-19T15:00:03;11.50;77.60
1988;DHT22;12775;46.994;15.498;2023-11-19T15:02:30;11.50;77.60
1988;DHT22;12775;46.994;15.498;2023-11-19T15:04:56;11.50;78.10
1988;DHT22;12775;46.994;15.498;2023-11-19T15:07:23;11.40;76.00
1988;DHT22;12775;46.994;15.498;2023-11-19T15:09:49;11.40;75.50
1988;DHT22;12775;46.994;15.498;2023-11-19T15:12:16;11.40;74.70
1988;DHT22;12775;46.994;15.498;2023-11-19T15:14:43;11.20;74.40
1988;DHT22;12775;46.994;15.498;2023-11-19T15:17:09;11.20;74.60
1988;DHT22;12775;46.994;15.498;2023-11-19T15:19:36;11.10;74.50
1988;DHT22;12775;46.994;15.498;2023-11-19T15:22:02;11.00;75.50
1988;DHT22;12775;46.994;15.498;2023-11-19T15:24:29;11.00;75.80
1988;DHT22;12775;46.994;15.498;2023-11-19T15:26:56;10.80;76.40
1988;DHT22;12775;46.994;15.498;2023-11-19T15:29:22;10.70;77.00
1988;DHT22;12775;46.994;15.498;2023-11-19T15:31:50;10.70;77.60
1988;DHT22;12775;46.994;15.498;2023-11-19T15:34:16;10.70;77.60
1988;DHT22;12775;46.994;15.498;2023-11-19T15:36:44;10.40;79.00
1988;DHT22;12775;46.994;15.498;2023-11-19T15:39:10;10.40;79.00
1988;DHT22;12775;46.994;15.498;2023-11-19T15:41:37;10.30;79.40
1988;DHT22;12775;46.994;15.498;2023-11-19T15:44:03;10.20;80.00
1988;DHT22;12775;46.994;15.498;2023-11-19T15:46:30;10.10;79.70
1988;DHT22;12775;46.994;15.498;2023-11-19T15:48:57;10.00;81.20
1988;DHT22;12775;46.994;15.498;2023-11-19T15:51:23;10.00;81.40